sensor_id;sensor_type;location;lat;lon;timestamp;pressure;altitude;pressure_sealevel;temperature;humidity
55590;BME280;41452;42.780;23.116;2023-04-30T00:01:07;94086.97;;;7.70;90.77
55590;BME280;41452;42.780;23.116;2023-04-30T00:03:32;94085.22;;;7.64;90.51
55590;BME280;41452;42.780;23.116;2023-04-30T00:05:57;94061.56;;;7.40;90.87
55590;BME280;41452;42.780;23.116;2023-04-30T00:08:23;94078.03;;;7.40;91.25
55590;BME280;41452;42.780;23.116;2023-04-30T00:10:48;94062.13;;;7.23;91.17
55590;BME280;41452;42.780;23.116;2023-04-30T00:13:13;94079.69;;;7.35;91.43
55590;BME280;41452;42.780;23.116;2023-04-30T00:15:39;94081.09;;;7.37;91.25
55590;BME280;41452;42.780;23.116;2023-04-30T00:18:05;94076.13;;;7.29;91.35
55590;BME280;41452;42.780;23.116;2023-04-30T00:20:34;94073.38;;;7.24;91.63
55590;BME280;41452;42.780;23.116;2023-04-30T00:22:59;94062.25;;;7.10;91.66
55590;BME280;41452;42.780;23.116;2023-04-30T00:25:25;94058.41;;;7.13;91.70
55590;BME280;41452;42.780;23.116;2023-04-30T00:27:50;94073.72;;;7.28;90.97
55590;BME280;41452;42.780;23.116;2023-04-30T00:30:15;94068.94;;;7.24;91.07
55590;BME280;41452;42.780;23.116;2023-04-30T00:32:41;94074.47;;;7.16;91.83
55590;BME280;41452;42.780;23.116;2023-04-30T00:35:06;94029.84;;;6.74;91.92
55590;BME280;41452;42.780;23.116;2023-04-30T00:37:32;94077.53;;;7.07;92.12
55590;BME280;41452;42.780;23.116;2023-04-30T00:39:57;94010.41;;;6.70;91.89
55590;BME280;41452;42.780;23.116;2023-04-30T00:42:23;94072.69;;;7.10;91.56
55590;BME280;41452;42.780;23.116;2023-04-30T00:44:48;94076.75;;;7.06;91.45
55590;BME280;41452;42.780;23.116;2023-04-30T00:47:13;94076.34;;;7.09;91.55
55590;BME280;41452;42.780;23.116;2023-04-30T00:49:39;94064.94;;;7.03;91.26
55590;BME280;41452;42.780;23.116;2023-04-30T00:52:05;94074.84;;;6.95;91.40
55590;BME280;41452;42.780;23.116;2023-04-30T00:54:30;94060.59;;;6.91;91.49
55590;BME280;41452;42.780;23.116;2023-04-30T00:56:57;94074.78;;;7.01;90.78
55590;BME280;41452;42.780;23.116;2023-04-30T00:59:23;94076.44;;;6.96;90.63
55590;BME280;41452;42.780;23.116;2023-04-30T01:01:48;94069.25;;;6.91;91.21
55590;BME280;41452;42.780;23.116;2023-04-30T01:04:14;94056.88;;;6.80;91.05
55590;BME280;41452;42.780;23.116;2023-04-30T01:06:39;94049.72;;;6.75;91.68
55590;BME280;41452;42.780;23.116;2023-04-30T01:09:05;94045.91;;;6.71;91.69
55590;BME280;41452;42.780;23.116;2023-04-30T01:11:53;94057.97;;;6.72;92.25
55590;BME280;41452;42.780;23.116;2023-04-30T01:14:27;94059.50;;;6.80;91.62
55590;BME280;41452;42.780;23.116;2023-04-30T01:19:45;94042.38;;;6.59;92.04
55590;BME280;41452;42.780;23.116;2023-04-30T01:22:21;94059.16;;;6.70;92.38
55590;BME280;41452;42.780;23.116;2023-04-30T01:28:11;94058.38;;;6.69;93.74
55590;BME280;41452;42.780;23.116;2023-04-30T01:30:40;94059.78;;;6.72;93.97
55590;BME280;41452;42.780;23.116;2023-04-30T01:33:05;94043.59;;;6.63;94.56
55590;BME280;41452;42.780;23.116;2023-04-30T01:41:12;94032.06;;;6.45;96.30
55590;BME280;41452;42.780;23.116;2023-04-30T01:46:30;94057.38;;;6.45;97.24
55590;BME280;41452;42.780;23.116;2023-04-30T01:49:26;94055.16;;;6.42;97.27
55590;BME280;41452;42.780;23.116;2023-04-30T01:52:03;94057.00;;;6.41;97.43
55590;BME280;41452;42.780;23.116;2023-04-30T01:54:53;94057.19;;;6.40;97.73
55590;BME280;41452;42.780;23.116;2023-04-30T01:57:31;94053.19;;;6.37;98.14
55590;BME280;41452;42.780;23.116;2023-04-30T01:59:57;94040.41;;;6.29;98.53
55590;BME280;41452;42.780;23.116;2023-04-30T02:02:23;94053.75;;;6.39;98.69
55590;BME280;41452;42.780;23.116;2023-04-30T02:04:48;94054.63;;;6.33;98.97
55590;BME280;41452;42.780;23.116;2023-04-30T02:07:34;94042.00;;;6.30;98.70
55590;BME280;41452;42.780;23.116;2023-04-30T02:10:02;94053.19;;;6.37;99.04
55590;BME280;41452;42.780;23.116;2023-04-30T02:12:28;94055.03;;;6.30;99.92
55590;BME280;41452;42.780;23.116;2023-04-30T02:14:54;94060.84;;;6.32;100.00
55590;BME280;41452;42.780;23.116;2023-04-30T02:17:20;94055.00;;;6.37;100.00
55590;BME280;41452;42.780;23.116;2023-04-30T02:19:45;94052.81;;;6.34;100.00
55590;BME280;41452;42.780;23.116;2023-04-30T02:22:10;94052.00;;;6.33;100.00
55590;BME280;41452;42.780;23.116;2023-04-30T02:24:36;94046.19;;;6.38;100.00
55590;BME280;41452;42.780;23.116;2023-04-30T02:27:01;94019.84;;;6.14;100.00
55590;BME280;41452;42.780;23.116;2023-04-30T02:29:26;94054.66;;;6.26;100.00
55590;BME280;41452;42.780;23.116;2023-04-30T02:31:52;94051.00;;;6.34;100.00
55590;BME280;41452;42.780;23.116;2023-04-30T02:34:17;94058.81;;;6.34;100.00
55590;BME280;41452;42.780;23.116;2023-04-30T02:36:43;94058.22;;;6.32;100.00
55590;BME280;41452;42.780;23.116;2023-04-30T02:39:08;94051.16;;;6.39;100.00
55590;BME280;41452;42.780;23.116;2023-04-30T02:41:33;94053.59;;;6.34;100.00
55590;BME280;41452;42.780;23.116;2023-04-30T02:43:59;94064.00;;;6.41;99.61
55590;BME280;41452;42.780;23.116;2023-04-30T02:46:24;94058.97;;;6.39;99.66
55590;BME280;41452;42.780;23.116;2023-04-30T02:48:50;94040.41;;;6.29;99.64
55590;BME280;41452;42.780;23.116;2023-04-30T02:51:15;94064.81;;;6.41;99.24
55590;BME280;41452;42.780;23.116;2023-04-30T02:53:40;94041.25;;;6.23;98.41
55590;BME280;41452;42.780;23.116;2023-04-30T02:56:06;94060.91;;;6.25;98.33
55590;BME280;41452;42.780;23.116;2023-04-30T02:58:32;94058.34;;;6.12;98.76
55590;BME280;41452;42.780;23.116;2023-04-30T03:00:57;94059.75;;;6.15;98.54
55590;BME280;41452;42.780;23.116;2023-04-30T03:03:23;94058.56;;;6.11;99.00
55590;BME280;41452;42.780;23.116;2023-04-30T03:05:49;94068.56;;;6.14;99.18
55590;BME280;41452;42.780;23.116;2023-04-30T03:08:14;94050.16;;;6.08;99.55
55590;BME280;41452;42.780;23.116;2023-04-30T03:10:39;94036.97;;;5.97;99.71
55590;BME280;41452;42.780;23.116;2023-04-30T03:13:05;94066.56;;;6.16;100.00
55590;BME280;41452;42.780;23.116;2023-04-30T03:15:33;94066.56;;;6.16;99.91
55590;BME280;41452;42.780;23.116;2023-04-30T03:17:58;94074.59;;;6.07;100.00
55590;BME280;41452;42.780;23.116;2023-04-30T03:20:24;94074.84;;;6.06;100.00
55590;BME280;41452;42.780;23.116;2023-04-30T03:22:49;94080.88;;;6.00;100.00
55590;BME280;41452;42.780;23.116;2023-04-30T03:25:15;94013.69;;;5.63;99.94
55590;BME280;41452;42.780;23.116;2023-04-30T03:27:40;94068.03;;;5.98;99.68
55590;BME280;41452;42.780;23.116;2023-04-30T03:30:06;94077.88;;;6.03;99.63
55590;BME280;41452;42.780;23.116;2023-04-30T03:32:32;94083.28;;;6.01;99.72
55590;BME280;41452;42.780;23.116;2023-04-30T03:34:57;94068.69;;;5.87;100.00
55590;BME280;41452;42.780;23.116;2023-04-30T03:37:22;94086.69;;;5.95;99.98
55590;BME280;41452;42.780;23.116;2023-04-30T03:39:48;94083.47;;;5.93;99.79
55590;BME280;41452;42.780;23.116;2023-04-30T03:42:13;94086.31;;;5.92;100.00
55590;BME280;41452;42.780;23.116;2023-04-30T03:44:38;94054.75;;;5.61;100.00
55590;BME280;41452;42.780;23.116;2023-04-30T03:47:04;94101.38;;;5.83;100.00
55590;BME280;41452;42.780;23.116;2023-04-30T03:49:30;94079.41;;;5.65;100.00
55590;BME280;41452;42.780;23.116;2023-04-30T03:51:55;94100.38;;;5.77;100.00
55590;BME280;41452;42.780;23.116;2023-04-30T03:54:21;94100.34;;;5.84;100.00
55590;BME280;41452;42.780;23.116;2023-04-30T03:56:46;94109.53;;;5.93;100.00
55590;BME280;41452;42.780;23.116;2023-04-30T03:59:12;94110.78;;;5.97;100.00
55590;BME280;41452;42.780;23.116;2023-04-30T04:01:37;94113.97;;;5.99;100.00
55590;BME280;41452;42.780;23.116;2023-04-30T04:04:02;94100.69;;;6.07;100.00
55590;BME280;41452;42.780;23.116;2023-04-30T04:06:28;94103.44;;;6.19;100.00
55590;BME280;41452;42.780;23.116;2023-04-30T04:08:53;94106.78;;;6.33;100.00
55590;BME280;41452;42.780;23.116;2023-04-30T04:11:19;94110.56;;;6.37;100.00
55590;BME280;41452;42.780;23.116;2023-04-30T04:13:44;94117.56;;;6.43;100.00
55590;BME280;41452;42.780;23.116;2023-04-30T04:16:10;94115.13;;;6.49;100.00
55590;BME280;41452;42.780;23.116;2023-04-30T04:18:36;94118.50;;;6.56;100.00
55590;BME280;41452;42.780;23.116;2023-04-30T04:21:01;94118.81;;;6.66;100.00
55590;BME280;41452;42.780;23.116;2023-04-30T04:23:26;94119.94;;;6.77;100.00
55590;BME280;41452;42.780;23.116;2023-04-30T04:25:52;94123.34;;;6.84;100.00
55590;BME280;41452;42.780;23.116;2023-04-30T04:28:18;94125.66;;;6.92;100.00
55590;BME280;41452;42.780;23.116;2023-04-30T04:30:43;94112.59;;;6.92;100.00
55590;BME280;41452;42.780;23.116;2023-04-30T04:33:09;94088.63;;;6.77;100.00
55590;BME280;41452;42.780;23.116;2023-04-30T04:35:36;94127.75;;;7.09;100.00
55590;BME280;41452;42.780;23.116;2023-04-30T04:38:01;94129.56;;;7.08;100.00
55590;BME280;41452;42.780;23.116;2023-04-30T04:40:27;94125.88;;;7.16;100.00
55590;BME280;41452;42.780;23.116;2023-04-30T04:42:52;94127.22;;;7.25;100.00
55590;BME280;41452;42.780;23.116;2023-04-30T04:45:18;94128.81;;;7.26;100.00
55590;BME280;41452;42.780;23.116;2023-04-30T04:47:45;94105.78;;;7.16;100.00
55590;BME280;41452;42.780;23.116;2023-04-30T04:50:11;94122.28;;;7.35;100.00
55590;BME280;41452;42.780;23.116;2023-04-30T04:52:37;94119.41;;;7.43;100.00
55590;BME280;41452;42.780;23.116;2023-04-30T04:55:03;94137.78;;;7.55;100.00
55590;BME280;41452;42.780;23.116;2023-04-30T04:57:29;94107.13;;;7.44;100.00
55590;BME280;41452;42.780;23.116;2023-04-30T04:59:54;94152.84;;;7.78;100.00
55590;BME280;41452;42.780;23.116;2023-04-30T05:02:20;94145.94;;;7.84;100.00
55590;BME280;41452;42.780;23.116;2023-04-30T05:04:47;94128.78;;;7.88;100.00
55590;BME280;41452;42.780;23.116;2023-04-30T05:07:14;94137.06;;;8.04;100.00
55590;BME280;41452;42.780;23.116;2023-04-30T05:09:40;94114.03;;;7.94;100.00
55590;BME280;41452;42.780;23.116;2023-04-30T05:12:05;94135.59;;;8.08;100.00
55590;BME280;41452;42.780;23.116;2023-04-30T05:14:30;94125.06;;;8.14;100.00
55590;BME280;41452;42.780;23.116;2023-04-30T05:16:56;94145.75;;;8.34;100.00
55590;BME280;41452;42.780;23.116;2023-04-30T05:19:21;94138.81;;;8.40;100.00
55590;BME280;41452;42.780;23.116;2023-04-30T05:21:47;94143.56;;;8.50;100.00
55590;BME280;41452;42.780;23.116;2023-04-30T05:24:12;94146.31;;;8.55;100.00
55590;BME280;41452;42.780;23.116;2023-04-30T05:26:37;94152.44;;;8.49;100.00
55590;BME280;41452;42.780;23.116;2023-04-30T05:29:03;94150.03;;;8.47;100.00
55590;BME280;41452;42.780;23.116;2023-04-30T05:31:28;94146.47;;;8.60;100.00
55590;BME280;41452;42.780;23.116;2023-04-30T05:33:53;94144.16;;;8.52;100.00
55590;BME280;41452;42.780;23.116;2023-04-30T05:36:19;94113.06;;;8.25;100.00
55590;BME280;41452;42.780;23.116;2023-04-30T05:38:44;94143.84;;;8.60;100.00
55590;BME280;41452;42.780;23.116;2023-04-30T05:41:12;94152.97;;;8.69;100.00
55590;BME280;41452;42.780;23.116;2023-04-30T05:43:37;94118.94;;;8.39;100.00
55590;BME280;41452;42.780;23.116;2023-04-30T05:46:02;94161.41;;;8.71;100.00
55590;BME280;41452;42.780;23.116;2023-04-30T05:48:29;94103.25;;;8.21;100.00
55590;BME280;41452;42.780;23.116;2023-04-30T05:50:54;94160.19;;;8.55;100.00
55590;BME280;41452;42.780;23.116;2023-04-30T05:53:19;94159.34;;;8.73;100.00
55590;BME280;41452;42.780;23.116;2023-04-30T05:55:45;94150.50;;;8.86;100.00
55590;BME280;41452;42.780;23.116;2023-04-30T05:58:11;94144.38;;;8.92;100.00
55590;BME280;41452;42.780;23.116;2023-04-30T06:00:36;94155.56;;;9.00;100.00
55590;BME280;41452;42.780;23.116;2023-04-30T06:03:03;94162.41;;;9.01;100.00
55590;BME280;41452;42.780;23.116;2023-04-30T06:05:28;94162.28;;;9.07;100.00
55590;BME280;41452;42.780;23.116;2023-04-30T06:07:53;94159.91;;;9.18;100.00
55590;BME280;41452;42.780;23.116;2023-04-30T06:10:19;94159.78;;;9.01;100.00
55590;BME280;41452;42.780;23.116;2023-04-30T06:12:45;94170.19;;;9.19;100.00
55590;BME280;41452;42.780;23.116;2023-04-30T06:15:10;94169.72;;;9.34;100.00
55590;BME280;41452;42.780;23.116;2023-04-30T06:17:36;94160.75;;;9.30;100.00
55590;BME280;41452;42.780;23.116;2023-04-30T06:20:01;94159.50;;;9.44;100.00
55590;BME280;41452;42.780;23.116;2023-04-30T06:22:31;94170.09;;;9.73;100.00
55590;BME280;41452;42.780;23.116;2023-04-30T06:24:57;94160.16;;;9.87;100.00
55590;BME280;41452;42.780;23.116;2023-04-30T06:27:23;94158.44;;;10.04;100.00
55590;BME280;41452;42.780;23.116;2023-04-30T06:29:49;94165.25;;;10.17;100.00
55590;BME280;41452;42.780;23.116;2023-04-30T06:32:14;94125.09;;;10.17;100.00
55590;BME280;41452;42.780;23.116;2023-04-30T06:34:39;94159.69;;;10.54;100.00
55590;BME280;41452;42.780;23.116;2023-04-30T06:37:05;94148.66;;;10.69;100.00
55590;BME280;41452;42.780;23.116;2023-04-30T06:39:30;94151.44;;;10.91;100.00
55590;BME280;41452;42.780;23.116;2023-04-30T06:41:55;94151.75;;;11.12;99.50
55590;BME280;41452;42.780;23.116;2023-04-30T06:44:21;94145.97;;;11.44;92.45
55590;BME280;41452;42.780;23.116;2023-04-30T06:46:46;94158.75;;;11.74;89.92
55590;BME280;41452;42.780;23.116;2023-04-30T06:49:11;94156.34;;;11.89;88.66
55590;BME280;41452;42.780;23.116;2023-04-30T06:51:37;94161.41;;;11.91;89.01
55590;BME280;41452;42.780;23.116;2023-04-30T06:54:02;94156.59;;;11.88;84.85
55590;BME280;41452;42.780;23.116;2023-04-30T06:56:28;94173.81;;;11.95;86.52
55590;BME280;41452;42.780;23.116;2023-04-30T06:58:53;94178.75;;;11.92;85.67
55590;BME280;41452;42.780;23.116;2023-04-30T07:01:18;94169.75;;;11.88;82.97
55590;BME280;41452;42.780;23.116;2023-04-30T07:03:44;94166.41;;;11.75;85.78
55590;BME280;41452;42.780;23.116;2023-04-30T07:06:09;94161.47;;;11.79;86.64
55590;BME280;41452;42.780;23.116;2023-04-30T07:08:35;94173.78;;;11.90;87.43
55590;BME280;41452;42.780;23.116;2023-04-30T07:11:00;94149.22;;;11.68;88.20
55590;BME280;41452;42.780;23.116;2023-04-30T07:13:26;94180.81;;;11.90;87.22
55590;BME280;41452;42.780;23.116;2023-04-30T07:15:51;94174.41;;;11.97;87.26
55590;BME280;41452;42.780;23.116;2023-04-30T07:18:17;94171.59;;;11.87;90.21
55590;BME280;41452;42.780;23.116;2023-04-30T07:20:42;94175.00;;;11.88;88.38
55590;BME280;41452;42.780;23.116;2023-04-30T07:23:08;94178.91;;;12.02;90.25
55590;BME280;41452;42.780;23.116;2023-04-30T07:25:33;94176.53;;;12.01;88.93
55590;BME280;41452;42.780;23.116;2023-04-30T07:27:59;94163.06;;;11.97;90.07
55590;BME280;41452;42.780;23.116;2023-04-30T07:30:25;94162.91;;;11.87;87.94
55590;BME280;41452;42.780;23.116;2023-04-30T07:32:50;94180.75;;;12.02;90.24
55590;BME280;41452;42.780;23.116;2023-04-30T07:35:16;94174.78;;;12.06;89.01
55590;BME280;41452;42.780;23.116;2023-04-30T07:37:41;94182.09;;;12.04;88.50
55590;BME280;41452;42.780;23.116;2023-04-30T07:40:08;94182.66;;;12.06;89.53
55590;BME280;41452;42.780;23.116;2023-04-30T07:42:38;94182.66;;;12.06;86.14
55590;BME280;41452;42.780;23.116;2023-04-30T07:45:05;94187.97;;;12.11;86.38
55590;BME280;41452;42.780;23.116;2023-04-30T07:47:30;94186.47;;;12.15;87.36
55590;BME280;41452;42.780;23.116;2023-04-30T07:49:56;94185.97;;;12.18;85.62
55590;BME280;41452;42.780;23.116;2023-04-30T07:52:21;94188.13;;;12.22;82.38
55590;BME280;41452;42.780;23.116;2023-04-30T07:54:47;94187.41;;;12.26;84.29
55590;BME280;41452;42.780;23.116;2023-04-30T07:57:12;94185.13;;;12.35;84.89
55590;BME280;41452;42.780;23.116;2023-04-30T07:59:37;94177.16;;;12.30;82.41
55590;BME280;41452;42.780;23.116;2023-04-30T08:02:03;94185.25;;;12.45;81.50
55590;BME280;41452;42.780;23.116;2023-04-30T08:04:28;94188.25;;;12.54;83.70
55590;BME280;41452;42.780;23.116;2023-04-30T08:06:53;94184.41;;;12.62;84.10
55590;BME280;41452;42.780;23.116;2023-04-30T08:09:19;94181.31;;;12.70;83.42
55590;BME280;41452;42.780;23.116;2023-04-30T08:11:44;94179.03;;;12.79;80.48
55590;BME280;41452;42.780;23.116;2023-04-30T08:14:09;94193.63;;;12.86;79.59
55590;BME280;41452;42.780;23.116;2023-04-30T08:16:35;94192.38;;;12.94;81.43
55590;BME280;41452;42.780;23.116;2023-04-30T08:19:00;94189.31;;;13.02;78.83
55590;BME280;41452;42.780;23.116;2023-04-30T08:21:26;94167.91;;;12.99;80.65
55590;BME280;41452;42.780;23.116;2023-04-30T08:23:53;94184.69;;;13.15;79.35
55590;BME280;41452;42.780;23.116;2023-04-30T08:26:18;94188.41;;;13.19;80.00
55590;BME280;41452;42.780;23.116;2023-04-30T08:28:44;94168.03;;;13.14;80.66
55590;BME280;41452;42.780;23.116;2023-04-30T08:31:09;94186.56;;;13.19;76.52
55590;BME280;41452;42.780;23.116;2023-04-30T08:33:35;94175.03;;;13.30;79.80
55590;BME280;41452;42.780;23.116;2023-04-30T08:36:00;94169.09;;;13.40;79.31
55590;BME280;41452;42.780;23.116;2023-04-30T08:38:27;94179.50;;;13.57;77.19
55590;BME280;41452;42.780;23.116;2023-04-30T08:41:04;94174.53;;;13.61;76.69
55590;BME280;41452;42.780;23.116;2023-04-30T08:43:33;94169.56;;;13.69;78.02
55590;BME280;41452;42.780;23.116;2023-04-30T08:45:59;94142.06;;;13.60;79.99
55590;BME280;41452;42.780;23.116;2023-04-30T08:48:26;94169.91;;;13.83;78.04
55590;BME280;41452;42.780;23.116;2023-04-30T08:50:52;94164.19;;;13.92;78.95
55590;BME280;41452;42.780;23.116;2023-04-30T08:53:18;94166.03;;;13.96;75.78
55590;BME280;41452;42.780;23.116;2023-04-30T08:55:45;94165.53;;;13.99;75.79
55590;BME280;41452;42.780;23.116;2023-04-30T08:58:11;94126.84;;;13.73;77.19
55590;BME280;41452;42.780;23.116;2023-04-30T09:00:37;94159.00;;;14.07;77.82
55590;BME280;41452;42.780;23.116;2023-04-30T09:03:04;94151.09;;;14.17;76.34
55590;BME280;41452;42.780;23.116;2023-04-30T09:05:29;94150.63;;;14.25;77.79
55590;BME280;41452;42.780;23.116;2023-04-30T09:07:55;94151.69;;;14.30;76.57
55590;BME280;41452;42.780;23.116;2023-04-30T09:10:21;94153.03;;;14.32;74.34
55590;BME280;41452;42.780;23.116;2023-04-30T09:13:01;94141.97;;;14.45;74.87
55590;BME280;41452;42.780;23.116;2023-04-30T09:15:27;94124.63;;;14.65;77.00
55590;BME280;41452;42.780;23.116;2023-04-30T09:18:14;94127.09;;;15.13;77.48
55590;BME280;41452;42.780;23.116;2023-04-30T09:21:00;94138.22;;;15.35;72.51
55590;BME280;41452;42.780;23.116;2023-04-30T09:23:26;94134.50;;;15.36;72.08
55590;BME280;41452;42.780;23.116;2023-04-30T09:25:52;94122.59;;;15.18;68.79
55590;BME280;41452;42.780;23.116;2023-04-30T09:28:17;94121.53;;;15.14;70.97
55590;BME280;41452;42.780;23.116;2023-04-30T09:30:43;94102.75;;;15.06;74.53
55590;BME280;41452;42.780;23.116;2023-04-30T09:33:08;94099.56;;;15.24;72.71
55590;BME280;41452;42.780;23.116;2023-04-30T09:35:35;94131.31;;;15.55;71.39
55590;BME280;41452;42.780;23.116;2023-04-30T09:38:02;94104.59;;;15.41;70.19
55590;BME280;41452;42.780;23.116;2023-04-30T09:40:38;94107.25;;;15.46;69.05
55590;BME280;41452;42.780;23.116;2023-04-30T09:43:07;94112.28;;;15.53;68.44
55590;BME280;41452;42.780;23.116;2023-04-30T09:45:43;94119.41;;;15.47;70.30
55590;BME280;41452;42.780;23.116;2023-04-30T09:48:11;94118.63;;;15.36;70.03
55590;BME280;41452;42.780;23.116;2023-04-30T09:50:39;94136.88;;;15.33;69.95
55590;BME280;41452;42.780;23.116;2023-04-30T09:53:09;94136.88;;;15.28;73.51
55590;BME280;41452;42.780;23.116;2023-04-30T09:55:37;94146.66;;;15.12;76.10
55590;BME280;41452;42.780;23.116;2023-04-30T09:58:06;94158.19;;;14.64;83.03
55590;BME280;41452;42.780;23.116;2023-04-30T10:00:35;94156.97;;;14.30;89.70
55590;BME280;41452;42.780;23.116;2023-04-30T10:03:07;94153.22;;;14.15;89.15
55590;BME280;41452;42.780;23.116;2023-04-30T10:05:36;94148.56;;;13.85;90.48
55590;BME280;41452;42.780;23.116;2023-04-30T10:08:04;94153.84;;;13.85;90.82
55590;BME280;41452;42.780;23.116;2023-04-30T10:10:31;94158.47;;;13.67;89.48
55590;BME280;41452;42.780;23.116;2023-04-30T10:13:02;94154.97;;;13.57;84.74
55590;BME280;41452;42.780;23.116;2023-04-30T10:15:37;94148.94;;;13.61;79.26
55590;BME280;41452;42.780;23.116;2023-04-30T10:18:07;94146.56;;;13.60;83.00
55590;BME280;41452;42.780;23.116;2023-04-30T10:20:35;94148.94;;;13.61;82.29
55590;BME280;41452;42.780;23.116;2023-04-30T10:23:03;94118.84;;;13.62;85.82
55590;BME280;41452;42.780;23.116;2023-04-30T10:25:30;94128.22;;;13.85;88.86
55590;BME280;41452;42.780;23.116;2023-04-30T10:27:56;94113.25;;;14.01;91.11
55590;BME280;41452;42.780;23.116;2023-04-30T10:30:22;94132.91;;;14.26;89.74
55590;BME280;41452;42.780;23.116;2023-04-30T10:35:28;94128.34;;;14.64;87.84
55590;BME280;41452;42.780;23.116;2023-04-30T10:38:21;94122.56;;;14.82;86.80
55590;BME280;41452;42.780;23.116;2023-04-30T10:40:49;94106.44;;;14.84;86.35
55590;BME280;41452;42.780;23.116;2023-04-30T10:43:18;94106.72;;;14.98;84.30
55590;BME280;41452;42.780;23.116;2023-04-30T10:45:45;94081.81;;;14.63;82.87
55590;BME280;41452;42.780;23.116;2023-04-30T10:48:13;94123.63;;;14.92;81.70
55590;BME280;41452;42.780;23.116;2023-04-30T10:50:43;94117.53;;;14.91;84.28
55590;BME280;41452;42.780;23.116;2023-04-30T10:53:13;94090.81;;;14.82;79.76
55590;BME280;41452;42.780;23.116;2023-04-30T10:55:52;94114.66;;;15.03;79.91
55590;BME280;41452;42.780;23.116;2023-04-30T11:00:59;94102.50;;;15.12;81.17
55590;BME280;41452;42.780;23.116;2023-04-30T11:03:27;94090.56;;;15.10;78.92
55590;BME280;41452;42.780;23.116;2023-04-30T11:05:52;94078.69;;;15.17;89.25
55590;BME280;41452;42.780;23.116;2023-04-30T11:08:18;94078.16;;;15.00;78.67
55590;BME280;41452;42.780;23.116;2023-04-30T11:10:58;94097.72;;;15.19;82.36
55590;BME280;41452;42.780;23.116;2023-04-30T11:13:26;94094.53;;;15.38;69.34
55590;BME280;41452;42.780;23.116;2023-04-30T11:15:51;94096.88;;;15.70;72.83
55590;BME280;41452;42.780;23.116;2023-04-30T11:18:17;94095.00;;;15.86;73.14
55590;BME280;41452;42.780;23.116;2023-04-30T11:20:49;94100.25;;;16.12;69.82
55590;BME280;41452;42.780;23.116;2023-04-30T11:23:22;94059.56;;;15.82;70.05
55590;BME280;41452;42.780;23.116;2023-04-30T11:25:48;94070.91;;;15.88;70.04
55590;BME280;41452;42.780;23.116;2023-04-30T11:28:16;94086.00;;;15.92;66.38
55590;BME280;41452;42.780;23.116;2023-04-30T11:33:20;94098.34;;;16.28;63.70
55590;BME280;41452;42.780;23.116;2023-04-30T11:35:47;94095.69;;;16.23;64.83
55590;BME280;41452;42.780;23.116;2023-04-30T11:38:16;94087.56;;;16.04;66.04
55590;BME280;41452;42.780;23.116;2023-04-30T11:40:43;94097.69;;;15.81;65.23
55590;BME280;41452;42.780;23.116;2023-04-30T11:43:32;94086.56;;;15.79;65.91
55590;BME280;41452;42.780;23.116;2023-04-30T11:48:29;94089.53;;;16.38;64.53
55590;BME280;41452;42.780;23.116;2023-04-30T11:50:55;94093.41;;;16.56;59.29
55590;BME280;41452;42.780;23.116;2023-04-30T11:53:26;94085.59;;;16.80;63.57
55590;BME280;41452;42.780;23.116;2023-04-30T11:55:52;94076.06;;;16.79;61.89
55590;BME280;41452;42.780;23.116;2023-04-30T11:58:19;94089.06;;;16.75;64.50
55590;BME280;41452;42.780;23.116;2023-04-30T12:00:45;94060.88;;;16.45;59.90
55590;BME280;41452;42.780;23.116;2023-04-30T12:03:13;94082.50;;;16.67;61.07
55590;BME280;41452;42.780;23.116;2023-04-30T12:05:39;94096.50;;;16.73;60.31
55590;BME280;41452;42.780;23.116;2023-04-30T12:08:06;94104.19;;;16.75;59.51
55590;BME280;41452;42.780;23.116;2023-04-30T12:10:34;94106.28;;;16.83;60.16
55590;BME280;41452;42.780;23.116;2023-04-30T12:12:59;94105.72;;;16.91;59.53
55590;BME280;41452;42.780;23.116;2023-04-30T12:15:25;94108.31;;;16.96;60.54
55590;BME280;41452;42.780;23.116;2023-04-30T12:17:53;94112.53;;;17.02;57.45
55590;BME280;41452;42.780;23.116;2023-04-30T12:20:21;94087.38;;;16.95;58.54
55590;BME280;41452;42.780;23.116;2023-04-30T12:22:47;94089.31;;;16.84;59.47
55590;BME280;41452;42.780;23.116;2023-04-30T12:25:15;94131.97;;;16.87;62.44
55590;BME280;41452;42.780;23.116;2023-04-30T12:27:45;94125.88;;;16.32;66.81
55590;BME280;41452;42.780;23.116;2023-04-30T12:30:11;94093.19;;;15.61;67.90
55590;BME280;41452;42.780;23.116;2023-04-30T12:32:41;94120.47;;;15.36;67.79
55590;BME280;41452;42.780;23.116;2023-04-30T12:35:08;94109.88;;;15.31;70.82
55590;BME280;41452;42.780;23.116;2023-04-30T12:37:41;94116.53;;;15.38;70.39
55590;BME280;41452;42.780;23.116;2023-04-30T12:40:07;94113.06;;;15.33;68.66
55590;BME280;41452;42.780;23.116;2023-04-30T12:42:34;94103.03;;;15.25;69.46
55590;BME280;41452;42.780;23.116;2023-04-30T12:45:00;94104.06;;;15.24;69.35
55590;BME280;41452;42.780;23.116;2023-04-30T12:47:25;94111.50;;;15.32;66.47
55590;BME280;41452;42.780;23.116;2023-04-30T12:49:50;94106.72;;;15.39;67.12
55590;BME280;41452;42.780;23.116;2023-04-30T12:52:16;94083.97;;;15.28;62.98
55590;BME280;41452;42.780;23.116;2023-04-30T12:54:41;94095.59;;;15.47;61.34
55590;BME280;41452;42.780;23.116;2023-04-30T12:57:09;94093.75;;;15.48;62.12
55590;BME280;41452;42.780;23.116;2023-04-30T13:02:22;94083.41;;;15.62;62.85
55590;BME280;41452;42.780;23.116;2023-04-30T13:04:49;94081.03;;;15.65;63.31
55590;BME280;41452;42.780;23.116;2023-04-30T13:07:15;94082.34;;;15.83;61.53
55590;BME280;41452;42.780;23.116;2023-04-30T13:09:40;94071.97;;;15.92;60.81
55590;BME280;41452;42.780;23.116;2023-04-30T13:12:06;94074.38;;;15.88;60.98
55590;BME280;41452;42.780;23.116;2023-04-30T13:14:32;94067.97;;;16.00;58.70
55590;BME280;41452;42.780;23.116;2023-04-30T13:16:57;94064.78;;;16.03;58.54
55590;BME280;41452;42.780;23.116;2023-04-30T13:19:23;94063.16;;;16.12;59.21